createdAt,value
2017-11-23T04:43:06.238Z,3.20
2017-11-23T04:45:33.073Z,3.30
2017-11-23T04:48:00.889Z,2.80
2017-11-23T04:50:27.785Z,3.47
2017-11-23T04:52:54.684Z,3.90
2017-11-23T04:55:21.568Z,3.20
2017-11-23T04:57:48.512Z,3.20
2017-11-23T05:00:15.579Z,3.47
2017-11-23T05:02:42.660Z,4.70
2017-11-23T05:05:09.555Z,4.10
2017-11-23T05:07:36.369Z,3.90
2017-11-23T05:10:03.295Z,3.87
2017-11-23T05:12:30.170Z,2.97
2017-11-23T05:14:57.027Z,3.43
2017-11-23T05:17:23.928Z,3.70
2017-11-23T05:19:50.821Z,4.00
2017-11-23T05:22:17.699Z,3.87
2017-11-23T05:24:44.848Z,3.80
2017-11-23T05:27:11.857Z,2.73
2017-11-23T05:29:38.753Z,2.33
2017-11-23T05:32:05.746Z,3.93
2017-11-23T05:34:32.700Z,3.73
2017-11-23T05:36:59.546Z,3.23
2017-11-23T05:39:26.327Z,3.40
2017-11-23T05:41:53.234Z,3.50
2017-11-23T05:44:20.150Z,3.57
2017-11-23T05:46:47.053Z,2.97
2017-11-23T05:49:13.942Z,3.23
2017-11-23T05:51:40.784Z,2.30
2017-11-23T05:54:07.608Z,3.00
2017-11-23T05:56:34.489Z,3.27
2017-11-23T05:59:01.397Z,3.50
2017-11-23T06:01:28.225Z,3.07
2017-11-23T06:03:55.390Z,2.67
2017-11-23T06:06:22.228Z,3.83
2017-11-23T06:08:49.070Z,3.20
2017-11-23T06:11:15.934Z,3.30
2017-11-23T06:13:43.159Z,2.60
2017-11-23T06:16:10.034Z,3.50
2017-11-23T06:18:36.908Z,3.20
2017-11-23T06:21:04.618Z,2.90
2017-11-23T06:23:31.458Z,2.87
2017-11-23T06:25:58.406Z,3.40
2017-11-23T06:28:25.403Z,2.83
2017-11-23T06:30:52.740Z,3.10
2017-11-23T06:33:19.645Z,2.93
2017-11-23T06:35:46.563Z,3.90
2017-11-23T06:38:13.393Z,4.40
2017-11-23T06:40:40.293Z,3.20
2017-11-23T06:43:07.117Z,3.33
2017-11-23T06:45:34.697Z,3.70
2017-11-23T06:48:01.583Z,3.47
2017-11-23T06:50:28.482Z,3.10
2017-11-23T06:52:55.302Z,3.27
2017-11-23T06:55:22.238Z,3.30
2017-11-23T06:57:49.156Z,3.80
2017-11-23T07:00:15.999Z,3.60
2017-11-23T07:02:42.901Z,2.90
2017-11-23T07:05:09.789Z,2.97
2017-11-23T07:07:36.624Z,3.63
2017-11-23T07:10:03.530Z,3.67
2017-11-23T07:12:31.970Z,3.03
2017-11-23T07:14:58.805Z,3.27
2017-11-23T07:17:25.699Z,3.20
2017-11-23T07:19:53.620Z,2.90
2017-11-23T07:22:21.179Z,3.60
2017-11-23T07:24:48.118Z,2.17
2017-11-23T07:27:14.957Z,3.17
2017-11-23T07:29:42.572Z,3.37
2017-11-23T07:32:09.467Z,3.40
2017-11-23T07:34:36.300Z,3.53
2017-11-23T07:37:03.161Z,3.50
2017-11-23T07:39:30.049Z,3.80
2017-11-23T07:41:56.937Z,3.60
2017-11-23T07:44:23.791Z,2.73
2017-11-23T07:46:51.645Z,3.40
2017-11-23T07:49:18.533Z,4.00
2017-11-23T07:51:46.296Z,3.90
2017-11-23T07:54:13.151Z,4.40
2017-11-23T07:56:40.073Z,3.50
2017-11-23T07:59:06.936Z,4.30
2017-11-23T08:01:33.806Z,3.80
2017-11-23T08:04:01.583Z,3.40
2017-11-23T08:06:28.490Z,3.87
2017-11-23T08:08:55.378Z,3.80
2017-11-23T08:11:22.227Z,3.60
2017-11-23T08:13:49.067Z,3.50
2017-11-23T08:16:16.060Z,3.17
2017-11-23T08:18:42.902Z,3.20
2017-11-23T08:21:09.738Z,4.00
2017-11-23T08:23:36.594Z,3.30
2017-11-23T08:26:03.487Z,3.43
2017-11-23T08:28:30.343Z,3.87
2017-11-23T08:30:57.284Z,4.03
2017-11-23T08:33:24.160Z,4.03
2017-11-23T08:35:51.042Z,3.30
2017-11-23T08:38:17.943Z,3.70
2017-11-23T08:40:44.849Z,4.10
2017-11-23T08:43:11.836Z,2.90
2017-11-23T08:45:38.742Z,4.40
2017-11-23T08:48:05.582Z,4.00
2017-11-23T08:50:32.419Z,3.50
2017-11-23T08:52:59.267Z,3.97
2017-11-23T08:55:27.985Z,3.20
2017-11-23T08:57:55.204Z,4.07
2017-11-23T09:00:22.106Z,4.67
2017-11-23T09:02:50.703Z,3.67
2017-11-23T09:05:19.323Z,3.80
2017-11-23T09:07:46.218Z,3.83
2017-11-23T09:10:13.022Z,4.17
2017-11-23T09:12:39.902Z,4.70
2017-11-23T09:15:07.747Z,4.70
2017-11-23T09:17:35.168Z,3.40
2017-11-23T09:20:02.013Z,3.70
2017-11-23T09:22:28.905Z,3.73
2017-11-23T09:24:55.754Z,4.60
2017-11-23T09:27:22.651Z,4.00
2017-11-23T09:29:49.592Z,4.30
2017-11-23T09:32:16.484Z,3.50
2017-11-23T09:34:43.451Z,3.57
2017-11-23T09:37:10.437Z,3.20
2017-11-23T09:39:37.381Z,3.30
2017-11-23T09:42:05.187Z,4.10
2017-11-23T09:44:32.192Z,3.77
2017-11-23T09:46:59.099Z,4.30
2017-11-23T09:49:27.370Z,3.23
2017-11-23T09:51:54.307Z,3.97
2017-11-23T09:54:21.198Z,3.90
2017-11-23T09:56:48.032Z,4.23
2017-11-23T09:59:14.927Z,4.30
2017-11-23T10:01:41.774Z,4.87
2017-11-23T10:04:08.707Z,3.90
2017-11-23T10:06:35.638Z,4.10
2017-11-23T10:09:02.526Z,4.23
2017-11-23T10:11:29.426Z,3.87
2017-11-23T10:13:56.311Z,3.70
2017-11-23T10:16:23.155Z,3.90
2017-11-23T10:18:50.409Z,4.37
2017-11-23T10:21:17.395Z,3.70
2017-11-23T10:23:44.227Z,4.30
2017-11-23T10:26:11.180Z,3.87
2017-11-23T10:28:38.101Z,3.90
2017-11-23T10:31:04.986Z,4.30
2017-11-23T10:33:32.008Z,4.00
2017-11-23T10:35:58.933Z,4.30
2017-11-23T10:38:25.883Z,3.50
2017-11-23T10:40:53.600Z,4.17
2017-11-23T10:43:20.623Z,4.20
2017-11-23T10:45:47.513Z,4.20
2017-11-23T10:48:30.156Z,3.80
2017-11-23T10:50:57.915Z,4.67
2017-11-23T10:53:24.880Z,5.00
2017-11-23T10:55:51.800Z,4.17
2017-11-23T10:58:18.759Z,3.50
2017-11-23T11:00:45.638Z,3.90
2017-11-23T11:03:13.505Z,4.83
2017-11-23T11:05:41.987Z,4.40
2017-11-23T11:08:08.827Z,4.03
2017-11-23T11:10:36.229Z,4.03
2017-11-23T11:13:03.287Z,4.10
2017-11-23T11:15:30.275Z,4.00
2017-11-23T11:17:57.174Z,5.63
2017-11-23T11:20:24.066Z,4.40
2017-11-23T11:22:50.909Z,4.83
2017-11-23T11:25:17.802Z,3.97
2017-11-23T11:27:44.697Z,4.27
2017-11-23T11:30:12.356Z,4.83
2017-11-23T11:32:39.299Z,3.20
2017-11-23T11:35:06.137Z,3.57
2017-11-23T11:37:32.975Z,4.13
2017-11-23T11:39:59.854Z,4.20
2017-11-23T11:42:26.703Z,4.23
2017-11-23T11:44:53.542Z,5.00
2017-11-23T11:47:20.383Z,4.40
2017-11-23T11:49:47.359Z,5.20
2017-11-23T11:52:14.246Z,3.90
2017-11-23T11:54:41.182Z,5.00
2017-11-23T11:57:08.614Z,6.40
2017-11-23T11:59:35.621Z,3.80
2017-11-23T12:02:03.506Z,4.10
2017-11-23T12:04:31.274Z,4.80
2017-11-23T12:06:58.111Z,4.50
2017-11-23T12:09:25.015Z,5.10
2017-11-23T12:11:51.870Z,5.50
2017-11-23T12:14:24.459Z,4.43
2017-11-23T12:17:11.098Z,3.90
2017-11-23T12:19:43.746Z,4.63
2017-11-23T12:22:17.337Z,3.97
2017-11-23T12:24:49.988Z,3.47
2017-11-23T12:27:16.894Z,6.60
2017-11-23T12:29:49.615Z,4.07
2017-11-23T12:32:16.503Z,3.70
2017-11-23T12:34:43.425Z,4.43
2017-11-23T12:37:10.305Z,5.10
2017-11-23T12:39:37.193Z,4.80
2017-11-23T12:42:04.087Z,5.33
2017-11-23T12:44:30.986Z,5.13
2017-11-23T12:46:57.866Z,4.40
2017-11-23T12:49:24.790Z,5.00
2017-11-23T12:51:51.613Z,4.60
2017-11-23T12:54:18.465Z,5.40
2017-11-23T12:56:45.346Z,6.27
2017-11-23T12:59:12.469Z,5.27
2017-11-23T13:01:39.265Z,5.30
2017-11-23T13:04:06.109Z,5.33
2017-11-23T13:06:32.957Z,5.20
2017-11-23T13:09:00.287Z,5.73
2017-11-23T13:11:27.193Z,5.00
2017-11-23T13:13:54.426Z,6.20
2017-11-23T13:16:21.327Z,5.20
2017-11-23T13:18:48.235Z,6.00
2017-11-23T13:21:15.082Z,6.60
2017-11-23T13:23:41.922Z,5.40
2017-11-23T13:26:08.764Z,5.43
2017-11-23T13:28:35.615Z,6.23
2017-11-23T13:31:02.517Z,5.47
2017-11-23T13:33:29.385Z,5.53
2017-11-23T13:35:56.271Z,5.83
2017-11-23T13:38:23.115Z,5.97
2017-11-23T13:40:49.972Z,5.37
2017-11-23T13:43:16.883Z,6.47
2017-11-23T13:45:43.763Z,6.60
2017-11-23T13:48:10.825Z,5.50
2017-11-23T13:50:37.636Z,6.10
2017-11-23T13:53:04.511Z,6.30
2017-11-23T13:55:31.438Z,6.33
2017-11-23T13:57:58.270Z,6.20
2017-11-23T14:00:25.112Z,5.40
2017-11-23T14:02:51.947Z,6.20
2017-11-23T14:05:19.773Z,6.77
2017-11-23T14:07:46.686Z,4.57
2017-11-23T14:10:14.423Z,6.00
2017-11-23T14:12:41.482Z,8.37
2017-11-23T14:15:08.374Z,6.30
2017-11-23T14:17:35.317Z,7.03
2017-11-23T14:20:02.939Z,6.30
2017-11-23T14:22:29.798Z,6.07
2017-11-23T14:24:56.718Z,5.70
2017-11-23T14:27:23.626Z,4.20
2017-11-23T14:29:53.236Z,6.87
2017-11-23T14:32:20.176Z,5.53
2017-11-23T14:34:47.077Z,5.60
2017-11-23T14:37:13.951Z,6.30
2017-11-23T14:39:40.854Z,5.87
2017-11-23T14:42:07.867Z,6.67
2017-11-23T14:44:34.740Z,6.20
2017-11-23T14:47:01.644Z,6.77
2017-11-23T14:49:28.487Z,3.20
2017-11-23T14:51:55.323Z,6.73
2017-11-23T14:54:22.216Z,6.07
2017-11-23T14:56:49.144Z,6.00
2017-11-23T14:59:15.971Z,6.90
2017-11-23T15:01:42.844Z,6.37
2017-11-23T15:04:09.721Z,6.63
2017-11-23T15:06:36.585Z,7.07
2017-11-23T15:09:03.508Z,6.13
2017-11-23T15:11:30.356Z,6.80
2017-11-23T15:13:57.258Z,6.47
2017-11-23T15:16:24.138Z,6.67
2017-11-23T15:18:52.029Z,5.30
2017-11-23T15:21:18.864Z,6.57
2017-11-23T15:23:45.808Z,5.80
2017-11-23T15:26:12.634Z,6.03
2017-11-23T15:28:39.481Z,7.30
2017-11-23T15:31:06.383Z,6.37
2017-11-23T15:33:33.229Z,6.00
2017-11-23T15:36:00.125Z,6.60
2017-11-23T15:38:26.975Z,5.87
2017-11-23T15:40:53.790Z,4.90
2017-11-23T15:43:20.675Z,7.67
2017-11-23T15:45:47.576Z,6.50
2017-11-23T15:48:14.420Z,6.10
2017-11-23T15:50:41.266Z,5.97
2017-11-23T15:53:08.170Z,5.80
2017-11-23T15:55:35.018Z,6.60
2017-11-23T15:58:01.918Z,6.20
2017-11-23T16:00:28.815Z,5.63
2017-11-23T16:02:55.686Z,5.10
2017-11-23T16:05:22.551Z,6.10
2017-11-23T16:07:49.469Z,7.40
2017-11-23T16:10:16.345Z,2.60
2017-11-23T16:12:43.157Z,2.00
2017-11-23T16:15:10.028Z,2.27
2017-11-23T16:17:36.957Z,2.27
2017-11-23T16:20:03.784Z,1.13
2017-11-23T16:22:30.700Z,2.40
2017-11-23T16:24:57.570Z,2.60
2017-11-23T16:27:24.419Z,1.80
2017-11-23T16:29:51.387Z,2.47
2017-11-23T16:32:18.221Z,2.27
2017-11-23T16:34:45.111Z,2.40
2017-11-23T16:37:12.008Z,2.63
2017-11-23T16:39:38.956Z,2.70
2017-11-23T16:42:11.855Z,2.87
2017-11-23T16:44:43.241Z,2.67
2017-11-23T16:47:15.861Z,3.23
2017-11-23T16:49:59.604Z,1.47
2017-11-23T16:52:32.035Z,1.87
2017-11-23T16:55:04.470Z,1.20
2017-11-23T16:57:35.065Z,1.70
2017-11-23T17:00:02.912Z,2.13
2017-11-23T17:02:35.502Z,1.20
2017-11-23T17:05:08.576Z,1.67
2017-11-23T17:07:41.136Z,1.70
2017-11-23T17:10:16.528Z,1.33
2017-11-23T17:12:50.004Z,1.10
2017-11-23T17:15:36.708Z,2.60
2017-11-23T17:18:20.121Z,1.73
2017-11-23T17:20:47.007Z,1.73
2017-11-23T17:23:14.928Z,1.80
2017-11-23T17:25:41.909Z,1.40
2017-11-23T17:28:08.747Z,1.53
2017-11-23T17:30:35.663Z,2.23
2017-11-23T17:33:02.936Z,1.60
2017-11-23T17:35:30.624Z,3.00
2017-11-23T17:37:57.464Z,2.00
2017-11-23T17:40:24.874Z,2.10
2017-11-23T17:42:51.976Z,1.70
2017-11-23T17:45:19.993Z,2.37
2017-11-23T17:47:47.398Z,2.37
2017-11-23T17:50:14.222Z,2.10
2017-11-23T17:52:41.067Z,1.50
2017-11-23T17:55:08.007Z,3.43
2017-11-23T17:57:34.854Z,2.40
2017-11-23T18:00:01.696Z,3.10
2017-11-23T18:02:28.570Z,2.80
2017-11-23T18:04:55.424Z,1.87
2017-11-23T18:07:22.286Z,2.00
2017-11-23T18:09:49.185Z,2.07
2017-11-23T18:12:16.030Z,1.93
2017-11-23T18:14:42.845Z,1.83
2017-11-23T18:17:17.346Z,2.30
2017-11-23T18:23:01.820Z,1.97
2017-11-23T18:25:28.663Z,2.50
2017-11-23T18:27:56.006Z,2.13
2017-11-23T18:30:23.526Z,2.20
2017-11-23T18:32:50.305Z,2.37
2017-11-23T18:35:17.711Z,2.20
2017-11-23T18:37:44.576Z,3.30
2017-11-23T18:40:11.600Z,2.77
2017-11-23T18:42:38.396Z,2.93
2017-11-23T18:45:06.383Z,3.43
2017-11-23T18:47:33.595Z,3.57
2017-11-23T18:50:00.851Z,2.93
2017-11-23T18:52:28.329Z,3.50
2017-11-23T18:54:55.825Z,2.83
2017-11-23T18:57:22.590Z,4.07
2017-11-23T18:59:49.410Z,2.67
2017-11-23T19:02:16.214Z,2.47
2017-11-23T19:04:42.986Z,2.30
2017-11-23T19:07:09.817Z,1.87
2017-11-23T19:09:37.457Z,2.40
2017-11-23T19:12:04.219Z,1.67
2017-11-23T19:14:31.043Z,1.33
2017-11-23T19:16:57.881Z,2.60
2017-11-23T19:19:24.685Z,2.30
2017-11-23T19:21:51.692Z,2.97
2017-11-23T19:24:18.497Z,2.30
2017-11-23T19:26:46.239Z,2.17
2017-11-23T19:29:14.455Z,2.27
2017-11-23T19:31:41.738Z,1.40
2017-11-23T19:34:08.992Z,3.80
2017-11-23T19:36:35.955Z,1.47
2017-11-23T19:39:03.363Z,1.60
2017-11-23T19:41:30.136Z,2.30
2017-11-23T19:43:56.968Z,2.00
2017-11-23T19:46:23.999Z,2.50
2017-11-23T19:48:50.949Z,2.00
2017-11-23T19:51:18.227Z,2.23
2017-11-23T19:53:45.225Z,1.73
2017-11-23T19:56:12.069Z,1.40
2017-11-23T19:58:39.121Z,1.80
2017-11-23T20:01:05.954Z,2.47
2017-11-23T20:03:33.193Z,2.00
2017-11-23T20:06:01.139Z,2.40
2017-11-23T20:08:27.934Z,1.80
2017-11-23T20:10:54.757Z,2.17
2017-11-23T20:13:21.635Z,1.80
2017-11-23T20:15:48.418Z,1.93
2017-11-23T20:18:15.245Z,2.17
2017-11-23T20:20:42.465Z,2.17
2017-11-23T20:23:10.052Z,2.33
2017-11-23T20:25:36.837Z,2.13
2017-11-23T20:28:03.709Z,2.20
2017-11-23T20:30:30.490Z,2.83
2017-11-23T20:32:57.383Z,1.80
2017-11-23T20:35:24.310Z,3.50
2017-11-23T20:37:51.966Z,2.83
2017-11-23T20:40:18.785Z,2.67
2017-11-23T20:42:45.819Z,1.30
2017-11-23T20:45:12.669Z,2.77
2017-11-23T20:47:39.553Z,3.03
2017-11-23T20:50:06.448Z,3.20
2017-11-23T20:52:33.218Z,3.23
2017-11-23T20:55:00.154Z,3.07
2017-11-23T20:57:28.040Z,2.93
2017-11-23T20:59:54.943Z,2.70
2017-11-23T21:02:21.874Z,2.23
2017-11-23T21:04:48.800Z,3.57
2017-11-23T21:07:15.716Z,2.30
2017-11-23T21:09:43.074Z,1.90
2017-11-23T21:12:10.003Z,2.70
2017-11-23T21:14:36.903Z,1.70
2017-11-23T21:17:03.759Z,2.20
2017-11-23T21:19:30.608Z,2.80
2017-11-23T21:21:57.396Z,2.53
2017-11-23T21:24:24.235Z,2.73
2017-11-23T21:26:51.133Z,1.87
2017-11-23T21:29:17.974Z,2.20
2017-11-23T21:31:45.110Z,2.80
2017-11-23T21:34:12.118Z,1.93
2017-11-23T21:36:39.907Z,3.60
2017-11-23T21:39:07.331Z,2.07
2017-11-23T21:41:34.181Z,1.70
2017-11-23T21:44:01.008Z,2.00
2017-11-23T21:46:27.863Z,2.73
2017-11-23T21:48:54.961Z,1.50
2017-11-23T21:51:21.810Z,1.60
2017-11-23T21:53:48.584Z,2.07
2017-11-23T21:56:15.436Z,1.47
2017-11-23T21:58:42.232Z,1.93
2017-11-23T22:01:09.024Z,2.17
2017-11-23T22:03:36.586Z,2.77
2017-11-23T22:06:03.917Z,2.27
2017-11-23T22:08:31.021Z,1.50
2017-11-23T22:10:58.026Z,1.60
2017-11-23T22:13:24.967Z,1.80
2017-11-23T22:15:51.806Z,1.80
2017-11-23T22:18:18.662Z,1.83
2017-11-23T22:20:45.498Z,2.30
2017-11-23T22:23:12.457Z,1.60
2017-11-23T22:25:39.323Z,1.37
2017-11-23T22:28:06.131Z,2.17
2017-11-23T22:30:32.945Z,2.10
2017-11-23T22:32:59.769Z,1.40
2017-11-23T22:35:27.586Z,1.60
2017-11-23T22:37:54.475Z,1.37
2017-11-23T22:40:22.348Z,1.50
2017-11-23T22:42:49.515Z,1.50
2017-11-23T22:45:16.492Z,2.30
2017-11-23T22:47:43.327Z,2.03
2017-11-23T22:50:10.098Z,1.70
2017-11-23T22:52:37.373Z,1.67
2017-11-23T22:55:05.300Z,1.60
2017-11-23T22:57:32.118Z,1.60
2017-11-23T22:59:58.962Z,1.30
2017-11-23T23:02:25.933Z,2.00
2017-11-23T23:04:52.757Z,1.47
2017-11-23T23:07:19.553Z,1.10
2017-11-23T23:09:46.963Z,1.40
